sensor_id;sensor_type;location;lat;lon;timestamp;pressure;altitude;pressure_sealevel;temperature;humidity
12913;BME280;6524;51.368;11.984;2023-04-05T04:00:28;101085.75;;;0.50;51.54
12913;BME280;6524;51.368;11.984;2023-04-05T04:05:28;101087.34;;;0.58;51.58
12913;BME280;6524;51.368;11.984;2023-04-05T04:10:30;101085.59;;;0.61;51.50
12913;BME280;6524;51.368;11.984;2023-04-05T04:15:31;101085.59;;;0.61;51.82
12913;BME280;6524;51.368;11.984;2023-04-05T04:20:31;101081.53;;;0.40;51.95
12913;BME280;6524;51.368;11.984;2023-04-05T04:25:32;101085.31;;;0.80;50.35
12913;BME280;6524;51.368;11.984;2023-04-05T04:30:32;101086.50;;;0.60;50.17
12913;BME280;6524;51.368;11.984;2023-04-05T04:35:34;101081.75;;;0.89;50.24
12913;BME280;6524;51.368;11.984;2023-04-05T04:40:37;101081.00;;;0.81;50.70
12913;BME280;6524;51.368;11.984;2023-04-05T04:45:40;101084.50;;;0.77;50.17
12913;BME280;6524;51.368;11.984;2023-04-05T04:50:44;101081.09;;;0.73;50.33
12913;BME280;6524;51.368;11.984;2023-04-05T04:55:45;101074.88;;;0.85;50.11
12913;BME280;6524;51.368;11.984;2023-04-05T05:00:49;101083.56;;;0.84;50.17
12913;BME280;6524;51.368;11.984;2023-04-05T05:05:52;101087.88;;;0.85;50.60
12913;BME280;6524;51.368;11.984;2023-04-05T05:10:52;101086.13;;;0.86;50.46
12913;BME280;6524;51.368;11.984;2023-04-05T05:15:53;101090.47;;;0.85;50.38
12913;BME280;6524;51.368;11.984;2023-04-05T05:20:53;101089.63;;;0.85;50.23
12913;BME280;6524;51.368;11.984;2023-04-05T05:25:57;101084.44;;;0.85;50.01
12913;BME280;6524;51.368;11.984;2023-04-05T05:30:58;101078.28;;;0.90;49.65
12913;BME280;6524;51.368;11.984;2023-04-05T05:35:59;101089.63;;;0.83;49.33
12913;BME280;6524;51.368;11.984;2023-04-05T05:40:59;101087.22;;;0.68;49.94
12913;BME280;6524;51.368;11.984;2023-04-05T05:46:01;101081.88;;;0.80;50.67
12913;BME280;6524;51.368;11.984;2023-04-05T05:51:01;101083.31;;;1.02;49.54
12913;BME280;6524;51.368;11.984;2023-04-05T05:56:02;101090.22;;;1.03;50.20
12913;BME280;6524;51.368;11.984;2023-04-05T06:01:02;101079.25;;;1.40;49.87
12913;BME280;6524;51.368;11.984;2023-04-05T06:06:03;101079.50;;;1.25;50.02
12913;BME280;6524;51.368;11.984;2023-04-05T06:11:05;101086.06;;;1.47;50.00
12913;BME280;6524;51.368;11.984;2023-04-05T06:16:05;101082.50;;;1.52;49.35
12913;BME280;6524;51.368;11.984;2023-04-05T06:21:05;101086.91;;;1.49;48.33
12913;BME280;6524;51.368;11.984;2023-04-05T06:26:06;101083.75;;;1.80;47.85
12913;BME280;6524;51.368;11.984;2023-04-05T06:31:07;101078.44;;;1.86;48.35
12913;BME280;6524;51.368;11.984;2023-04-05T06:36:08;101079.00;;;2.02;48.97
12913;BME280;6524;51.368;11.984;2023-04-05T06:41:08;101081.03;;;2.34;48.33
12913;BME280;6524;51.368;11.984;2023-04-05T06:46:09;101084.91;;;2.96;47.20
12913;BME280;6524;51.368;11.984;2023-04-05T06:51:12;101082.63;;;3.19;44.35
12913;BME280;6524;51.368;11.984;2023-04-05T06:56:13;101081.16;;;3.77;44.03
12913;BME280;6524;51.368;11.984;2023-04-05T07:01:13;101078.69;;;4.07;44.52
12913;BME280;6524;51.368;11.984;2023-04-05T07:06:14;101077.34;;;4.83;42.49
12913;BME280;6524;51.368;11.984;2023-04-05T07:11:14;101088.41;;;5.19;42.35
12913;BME280;6524;51.368;11.984;2023-04-05T07:16:15;101086.19;;;5.61;40.79
12913;BME280;6524;51.368;11.984;2023-04-05T07:21:17;101078.94;;;5.70;40.00
12913;BME280;6524;51.368;11.984;2023-04-05T07:26:18;101071.03;;;6.43;39.13
12913;BME280;6524;51.368;11.984;2023-04-05T07:31:18;101086.66;;;6.93;38.83
12913;BME280;6524;51.368;11.984;2023-04-05T07:36:19;101072.13;;;6.38;39.78
12913;BME280;6524;51.368;11.984;2023-04-05T07:41:20;101070.69;;;6.29;39.25
12913;BME280;6524;51.368;11.984;2023-04-05T07:46:23;101080.22;;;7.65;37.81
12913;BME280;6524;51.368;11.984;2023-04-05T07:51:24;101077.22;;;7.32;37.38
12913;BME280;6524;51.368;11.984;2023-04-05T07:56:25;101085.09;;;6.66;38.30
12913;BME280;6524;51.368;11.984;2023-04-05T08:01:26;101066.31;;;8.04;36.64
12913;BME280;6524;51.368;11.984;2023-04-05T08:06:27;101077.16;;;11.88;30.66
12913;BME280;6524;51.368;11.984;2023-04-05T08:11:27;101086.88;;;15.30;26.08
12913;BME280;6524;51.368;11.984;2023-04-05T08:16:28;101084.28;;;17.86;23.09
12913;BME280;6524;51.368;11.984;2023-04-05T08:21:28;101082.22;;;19.30;21.73
12913;BME280;6524;51.368;11.984;2023-04-05T08:26:28;101081.13;;;21.63;19.15
12913;BME280;6524;51.368;11.984;2023-04-05T08:31:29;101079.75;;;21.59;19.41
12913;BME280;6524;51.368;11.984;2023-04-05T08:36:29;101069.63;;;20.54;19.86
12913;BME280;6524;51.368;11.984;2023-04-05T08:41:40;101067.97;;;20.53;18.96
12913;BME280;6524;51.368;11.984;2023-04-05T08:46:42;101067.22;;;22.71;18.26
12913;BME280;6524;51.368;11.984;2023-04-05T08:51:43;101060.63;;;22.57;17.40
12913;BME280;6524;51.368;11.984;2023-04-05T08:56:45;101062.91;;;22.78;16.94
12913;BME280;6524;51.368;11.984;2023-04-05T09:01:47;101063.09;;;22.34;18.01
12913;BME280;6524;51.368;11.984;2023-04-05T09:06:50;101063.53;;;22.21;18.04
12913;BME280;6524;51.368;11.984;2023-04-05T09:11:51;101060.91;;;22.11;17.27
12913;BME280;6524;51.368;11.984;2023-04-05T09:16:52;101059.38;;;24.47;15.80
12913;BME280;6524;51.368;11.984;2023-04-05T09:27:04;101055.53;;;22.96;15.67
12913;BME280;6524;51.368;11.984;2023-04-05T09:32:06;101055.25;;;18.83;18.08
12913;BME280;6524;51.368;11.984;2023-04-05T09:37:15;101047.25;;;14.17;21.64
12913;BME280;6524;51.368;11.984;2023-04-05T09:42:18;101044.22;;;12.64;23.42
12913;BME280;6524;51.368;11.984;2023-04-05T09:47:24;101043.56;;;12.46;23.65
12913;BME280;6524;51.368;11.984;2023-04-05T09:52:27;101036.00;;;12.95;22.95
12913;BME280;6524;51.368;11.984;2023-04-05T09:57:32;101030.06;;;12.07;23.42
12913;BME280;6524;51.368;11.984;2023-04-05T10:02:38;101029.38;;;10.53;25.50
12913;BME280;6524;51.368;11.984;2023-04-05T10:07:38;101028.75;;;8.77;27.22
12913;BME280;6524;51.368;11.984;2023-04-05T10:12:42;101023.38;;;8.60;26.85
12913;BME280;6524;51.368;11.984;2023-04-05T10:17:55;101029.66;;;8.76;27.37
12913;BME280;6524;51.368;11.984;2023-04-05T10:28:35;101023.66;;;8.54;27.25
12913;BME280;6524;51.368;11.984;2023-04-05T10:33:40;101020.09;;;8.93;27.36
12913;BME280;6524;51.368;11.984;2023-04-05T10:43:47;101008.72;;;11.07;25.16
12913;BME280;6524;51.368;11.984;2023-04-05T10:49:03;101006.47;;;11.15;25.59
12913;BME280;6524;51.368;11.984;2023-04-05T10:54:08;101006.13;;;14.47;22.85
12913;BME280;6524;51.368;11.984;2023-04-05T10:59:11;100999.28;;;16.30;20.37
12913;BME280;6524;51.368;11.984;2023-04-05T11:04:16;100998.41;;;15.62;20.68
12913;BME280;6524;51.368;11.984;2023-04-05T11:09:18;100993.81;;;16.54;20.28
12913;BME280;6524;51.368;11.984;2023-04-05T11:19:46;100989.84;;;14.27;20.90
12913;BME280;6524;51.368;11.984;2023-04-05T11:24:52;100993.31;;;15.48;20.80
12913;BME280;6524;51.368;11.984;2023-04-05T11:29:55;100980.69;;;17.27;20.53
12913;BME280;6524;51.368;11.984;2023-04-05T11:35:01;100987.50;;;18.23;19.21
12913;BME280;6524;51.368;11.984;2023-04-05T11:40:37;100980.34;;;17.83;19.82
12913;BME280;6524;51.368;11.984;2023-04-05T11:45:40;100975.19;;;16.20;20.69
12913;BME280;6524;51.368;11.984;2023-04-05T11:50:43;100976.22;;;14.56;21.64
12913;BME280;6524;51.368;11.984;2023-04-05T11:55:47;100967.88;;;12.83;23.50
12913;BME280;6524;51.368;11.984;2023-04-05T12:00:58;100963.38;;;10.99;25.88
12913;BME280;6524;51.368;11.984;2023-04-05T12:06:00;100963.84;;;10.60;26.00
12913;BME280;6524;51.368;11.984;2023-04-05T12:11:01;100960.72;;;10.37;25.98
12913;BME280;6524;51.368;11.984;2023-04-05T12:16:03;100961.69;;;9.70;26.75
12913;BME280;6524;51.368;11.984;2023-04-05T12:21:07;100961.38;;;9.43;26.80
12913;BME280;6524;51.368;11.984;2023-04-05T12:26:08;100947.63;;;9.53;27.03
12913;BME280;6524;51.368;11.984;2023-04-05T12:31:09;100949.25;;;9.56;27.20
12913;BME280;6524;51.368;11.984;2023-04-05T12:36:12;100945.19;;;9.33;27.14
12913;BME280;6524;51.368;11.984;2023-04-05T12:41:13;100935.84;;;9.43;27.09
12913;BME280;6524;51.368;11.984;2023-04-05T12:46:17;100932.13;;;9.47;27.66
12913;BME280;6524;51.368;11.984;2023-04-05T12:51:17;100928.56;;;9.64;27.65
12913;BME280;6524;51.368;11.984;2023-04-05T12:56:18;100929.00;;;9.39;28.74
12913;BME280;6524;51.368;11.984;2023-04-05T13:01:18;100918.47;;;9.39;28.82
12913;BME280;6524;51.368;11.984;2023-04-05T13:06:19;100910.69;;;9.03;28.34
12913;BME280;6524;51.368;11.984;2023-04-05T13:11:20;100905.69;;;9.31;27.84
12913;BME280;6524;51.368;11.984;2023-04-05T13:16:21;100905.06;;;9.44;27.62
12913;BME280;6524;51.368;11.984;2023-04-05T13:21:21;100899.22;;;10.19;27.18
12913;BME280;6524;51.368;11.984;2023-04-05T13:26:22;100889.31;;;10.39;27.73
12913;BME280;6524;51.368;11.984;2023-04-05T13:31:22;100882.34;;;10.38;26.03
12913;BME280;6524;51.368;11.984;2023-04-05T13:36:23;100880.81;;;10.80;25.76
12913;BME280;6524;51.368;11.984;2023-04-05T13:41:23;100870.53;;;11.77;25.40
12913;BME280;6524;51.368;11.984;2023-04-05T13:46:23;100866.97;;;12.05;25.04
12913;BME280;6524;51.368;11.984;2023-04-05T13:51:24;100859.56;;;12.51;26.57
12913;BME280;6524;51.368;11.984;2023-04-05T13:56:24;100857.19;;;12.99;25.51
12913;BME280;6524;51.368;11.984;2023-04-05T14:01:25;100860.59;;;12.89;24.81
12913;BME280;6524;51.368;11.984;2023-04-05T14:06:26;100851.16;;;13.10;25.00
12913;BME280;6524;51.368;11.984;2023-04-05T14:11:31;100850.13;;;13.88;25.42
12913;BME280;6524;51.368;11.984;2023-04-05T14:16:31;100859.44;;;13.31;23.47
12913;BME280;6524;51.368;11.984;2023-04-05T14:21:33;100849.75;;;13.30;23.43
12913;BME280;6524;51.368;11.984;2023-04-05T14:26:33;100842.69;;;12.52;23.81
12913;BME280;6524;51.368;11.984;2023-04-05T14:31:34;100835.25;;;12.97;23.30
12913;BME280;6524;51.368;11.984;2023-04-05T14:36:34;100839.69;;;12.84;22.87
12913;BME280;6524;51.368;11.984;2023-04-05T14:41:35;100838.28;;;12.66;22.88
12913;BME280;6524;51.368;11.984;2023-04-05T14:46:36;100831.97;;;12.41;23.29
12913;BME280;6524;51.368;11.984;2023-04-05T14:51:37;100829.19;;;12.70;23.60
12913;BME280;6524;51.368;11.984;2023-04-05T14:56:37;100819.13;;;12.35;24.63
12913;BME280;6524;51.368;11.984;2023-04-05T15:01:38;100824.63;;;11.49;24.70
12913;BME280;6524;51.368;11.984;2023-04-05T15:06:40;100826.31;;;11.79;24.43
12913;BME280;6524;51.368;11.984;2023-04-05T15:11:41;100820.97;;;11.09;25.61
12913;BME280;6524;51.368;11.984;2023-04-05T15:16:41;100813.78;;;10.66;25.46
12913;BME280;6524;51.368;11.984;2023-04-05T15:21:44;100808.31;;;10.69;26.23
12913;BME280;6524;51.368;11.984;2023-04-05T15:26:45;100805.00;;;10.36;25.84
12913;BME280;6524;51.368;11.984;2023-04-05T15:31:45;100794.53;;;10.64;25.81
12913;BME280;6524;51.368;11.984;2023-04-05T15:36:46;100799.44;;;10.10;25.83
12913;BME280;6524;51.368;11.984;2023-04-05T15:41:46;100808.00;;;9.84;25.76
12913;BME280;6524;51.368;11.984;2023-04-05T15:46:47;100804.44;;;10.31;26.35
12913;BME280;6524;51.368;11.984;2023-04-05T15:51:47;100796.94;;;9.77;26.52
12913;BME280;6524;51.368;11.984;2023-04-05T15:56:48;100796.06;;;9.92;26.58
12913;BME280;6524;51.368;11.984;2023-04-05T16:01:48;100799.16;;;9.35;25.75
12913;BME280;6524;51.368;11.984;2023-04-05T16:06:49;100798.25;;;7.42;27.18
12913;BME280;6524;51.368;11.984;2023-04-05T16:11:49;100797.72;;;8.45;26.91
12913;BME280;6524;51.368;11.984;2023-04-05T16:16:50;100800.47;;;7.52;27.90
12913;BME280;6524;51.368;11.984;2023-04-05T16:21:51;100801.81;;;8.15;27.23
12913;BME280;6524;51.368;11.984;2023-04-05T16:26:53;100794.13;;;9.15;27.51
12913;BME280;6524;51.368;11.984;2023-04-05T16:31:53;100795.25;;;8.41;27.58
12913;BME280;6524;51.368;11.984;2023-04-05T16:36:54;100802.38;;;8.22;27.93
12913;BME280;6524;51.368;11.984;2023-04-05T16:41:55;100800.81;;;8.70;26.97
12913;BME280;6524;51.368;11.984;2023-04-05T16:46:55;100804.56;;;8.49;27.30
12913;BME280;6524;51.368;11.984;2023-04-05T16:51:56;100796.94;;;8.08;27.55
12913;BME280;6524;51.368;11.984;2023-04-05T16:56:57;100786.13;;;8.66;26.69
12913;BME280;6524;51.368;11.984;2023-04-05T17:01:57;100793.41;;;8.61;26.44
12913;BME280;6524;51.368;11.984;2023-04-05T17:06:58;100803.81;;;8.81;26.76
12913;BME280;6524;51.368;11.984;2023-04-05T17:11:59;100800.22;;;8.30;27.32
12913;BME280;6524;51.368;11.984;2023-04-05T17:16:59;100801.91;;;8.14;27.67
12913;BME280;6524;51.368;11.984;2023-04-05T17:22:00;100807.34;;;7.92;28.26
12913;BME280;6524;51.368;11.984;2023-04-05T17:27:01;100798.94;;;8.03;28.20
12913;BME280;6524;51.368;11.984;2023-04-05T17:32:02;100808.22;;;7.92;28.72
12913;BME280;6524;51.368;11.984;2023-04-05T17:37:02;100809.84;;;7.76;28.96
12913;BME280;6524;51.368;11.984;2023-04-05T17:42:03;100803.00;;;7.34;29.23
12913;BME280;6524;51.368;11.984;2023-04-05T17:47:04;100799.09;;;7.24;28.66
12913;BME280;6524;51.368;11.984;2023-04-05T17:52:05;100808.81;;;7.60;28.51
12913;BME280;6524;51.368;11.984;2023-04-05T17:57:08;100816.94;;;7.16;28.71
12913;BME280;6524;51.368;11.984;2023-04-05T18:02:14;100807.34;;;6.96;29.50
12913;BME280;6524;51.368;11.984;2023-04-05T18:07:14;100806.84;;;7.07;29.81
12913;BME280;6524;51.368;11.984;2023-04-05T18:12:15;100808.53;;;7.28;30.10
12913;BME280;6524;51.368;11.984;2023-04-05T18:17:15;100803.34;;;6.87;31.52
12913;BME280;6524;51.368;11.984;2023-04-05T18:22:17;100818.56;;;6.79;31.64
12913;BME280;6524;51.368;11.984;2023-04-05T18:27:17;100824.88;;;6.32;32.59
12913;BME280;6524;51.368;11.984;2023-04-05T18:32:17;100826.38;;;6.38;33.21
12913;BME280;6524;51.368;11.984;2023-04-05T18:37:18;100833.09;;;6.45;34.26
12913;BME280;6524;51.368;11.984;2023-04-05T18:42:18;100830.03;;;6.34;34.68
12913;BME280;6524;51.368;11.984;2023-04-05T18:47:20;100832.16;;;6.26;34.62
12913;BME280;6524;51.368;11.984;2023-04-05T18:52:20;100831.94;;;5.86;36.23
12913;BME280;6524;51.368;11.984;2023-04-05T18:57:27;100841.00;;;5.78;35.93
12913;BME280;6524;51.368;11.984;2023-04-05T19:02:28;100838.31;;;5.57;36.58
12913;BME280;6524;51.368;11.984;2023-04-05T19:07:29;100842.16;;;5.71;36.46
12913;BME280;6524;51.368;11.984;2023-04-05T19:12:29;100840.47;;;5.46;35.68
12913;BME280;6524;51.368;11.984;2023-04-05T19:17:30;100846.88;;;5.37;36.09
12913;BME280;6524;51.368;11.984;2023-04-05T19:22:30;100855.94;;;5.52;35.67
12913;BME280;6524;51.368;11.984;2023-04-05T19:27:31;100855.34;;;5.20;36.18
12913;BME280;6524;51.368;11.984;2023-04-05T19:32:34;100848.41;;;4.94;36.97
12913;BME280;6524;51.368;11.984;2023-04-05T19:37:35;100844.41;;;4.58;38.24
12913;BME280;6524;51.368;11.984;2023-04-05T19:42:37;100836.91;;;4.99;36.76
12913;BME280;6524;51.368;11.984;2023-04-05T19:47:42;100821.63;;;4.86;38.24
12913;BME280;6524;51.368;11.984;2023-04-05T19:52:46;100830.75;;;4.74;38.39
12913;BME280;6524;51.368;11.984;2023-04-05T19:57:47;100824.19;;;4.36;39.39
12913;BME280;6524;51.368;11.984;2023-04-05T20:02:47;100827.22;;;4.24;39.53
12913;BME280;6524;51.368;11.984;2023-04-05T20:07:48;100833.59;;;4.68;38.29
12913;BME280;6524;51.368;11.984;2023-04-05T20:12:48;100825.69;;;4.70;39.33
12913;BME280;6524;51.368;11.984;2023-04-05T20:17:49;100827.66;;;4.63;39.63
12913;BME280;6524;51.368;11.984;2023-04-05T20:22:50;100817.47;;;4.29;39.45
12913;BME280;6524;51.368;11.984;2023-04-05T20:27:50;100820.63;;;4.12;40.19
12913;BME280;6524;51.368;11.984;2023-04-05T20:32:52;100817.41;;;3.74;40.96
12913;BME280;6524;51.368;11.984;2023-04-05T20:37:52;100814.13;;;3.68;40.97
12913;BME280;6524;51.368;11.984;2023-04-05T20:42:53;100806.16;;;3.72;40.77
12913;BME280;6524;51.368;11.984;2023-04-05T20:47:53;100797.66;;;3.94;40.39
12913;BME280;6524;51.368;11.984;2023-04-05T20:52:53;100794.47;;;4.12;41.90
12913;BME280;6524;51.368;11.984;2023-04-05T20:57:54;100790.38;;;3.47;41.78
12913;BME280;6524;51.368;11.984;2023-04-05T21:02:55;100791.94;;;3.23;42.38
12913;BME280;6524;51.368;11.984;2023-04-05T21:07:56;100788.66;;;3.46;40.60
12913;BME280;6524;51.368;11.984;2023-04-05T21:12:57;100786.88;;;4.04;39.34
12913;BME280;6524;51.368;11.984;2023-04-05T21:17:58;100785.44;;;3.66;39.74
12913;BME280;6524;51.368;11.984;2023-04-05T21:23:02;100794.47;;;4.12;40.82
12913;BME280;6524;51.368;11.984;2023-04-05T21:28:06;100798.56;;;4.21;40.69
12913;BME280;6524;51.368;11.984;2023-04-05T21:33:07;100793.59;;;3.55;42.81
12913;BME280;6524;51.368;11.984;2023-04-05T21:38:08;100790.66;;;3.38;44.17
12913;BME280;6524;51.368;11.984;2023-04-05T21:43:09;100787.56;;;3.24;43.02
12913;BME280;6524;51.368;11.984;2023-04-05T21:48:10;100792.94;;;3.19;43.34
12913;BME280;6524;51.368;11.984;2023-04-05T21:53:10;100786.97;;;3.14;42.81
12913;BME280;6524;51.368;11.984;2023-04-05T21:58:11;100796.84;;;3.03;42.79
12913;BME280;6524;51.368;11.984;2023-04-05T22:03:12;100789.50;;;3.47;43.09
12913;BME280;6524;51.368;11.984;2023-04-05T22:08:12;100790.38;;;3.47;43.54
12913;BME280;6524;51.368;11.984;2023-04-05T22:13:13;100793.38;;;3.33;43.80
12913;BME280;6524;51.368;11.984;2023-04-05T22:18:13;100800.34;;;3.03;43.86
12913;BME280;6524;51.368;11.984;2023-04-05T22:23:14;100799.81;;;2.91;44.56
12913;BME280;6524;51.368;11.984;2023-04-05T22:28:15;100791.16;;;2.56;46.27
12913;BME280;6524;51.368;11.984;2023-04-05T22:33:16;100802.94;;;2.36;45.89
12913;BME280;6524;51.368;11.984;2023-04-05T22:38:16;100793.50;;;2.32;46.27
12913;BME280;6524;51.368;11.984;2023-04-05T22:43:17;100792.66;;;2.66;45.93
12913;BME280;6524;51.368;11.984;2023-04-05T22:48:18;100797.13;;;2.94;45.40
12913;BME280;6524;51.368;11.984;2023-04-05T22:53:18;100794.78;;;2.83;45.72
12913;BME280;6524;51.368;11.984;2023-04-05T22:58:19;100786.69;;;2.61;45.25
12913;BME280;6524;51.368;11.984;2023-04-05T23:03:21;100779.88;;;3.19;44.79
12913;BME280;6524;51.368;11.984;2023-04-05T23:08:21;100788.06;;;3.37;44.87
12913;BME280;6524;51.368;11.984;2023-04-05T23:13:21;100783.25;;;2.59;46.47
12913;BME280;6524;51.368;11.984;2023-04-05T23:18:22;100786.28;;;3.07;46.46
12913;BME280;6524;51.368;11.984;2023-04-05T23:23:22;100787.91;;;3.11;46.35
12913;BME280;6524;51.368;11.984;2023-04-05T23:28:23;100785.44;;;2.41;48.41
12913;BME280;6524;51.368;11.984;2023-04-05T23:33:23;100784.06;;;2.61;47.79
12913;BME280;6524;51.368;11.984;2023-04-05T23:38:24;100774.25;;;2.71;47.36
12913;BME280;6524;51.368;11.984;2023-04-05T23:43:24;100777.97;;;2.95;46.40
12913;BME280;6524;51.368;11.984;2023-04-05T23:48:25;100774.13;;;3.38;46.81
12913;BME280;6524;51.368;11.984;2023-04-05T23:53:26;100762.72;;;2.79;48.01
12913;BME280;6524;51.368;11.984;2023-04-05T23:58:26;100761.63;;;3.18;47.20
